Ponte Branca, Brazil
Current Conditions -  °F | °C
As of 2:00 PM on Sunday 25 Jan 2015 (Local Time) from SBCY Reporting Station
Scattered Clouds Scattered Clouds  
Wind Chill: 88°   Ceiling: Unl
Heat Index: 93°   Visibility: 6mi
Dew Point: 70°   Wind: 13mph
Humidity: 55%   Direction: 10°N
Pressure: 29.91"   Gusts: NA
Location:  16.76°S, 52.83°W
Report Text: SBCY 251600Z 01011KT 9999 SCT020 31/21 Q1013
Loading
Personal Weather Stations






























Interactive Weather Map New forecast layout! Learn more

10-Day Weather Forecast

Advertisements
Track Severe Weather on mobile